Time;durP1;ratioP1;P1;durP2;ratioP2;P2;SDS_P1;SDS_P2;PMS_P1;PMS_P2;Temp;Humidity;BMP_temperature;BMP_pressure;BME280_temperature;BME280_humidity;BME280_pressure;Samples;Min_cycle;Max_cycle;Signal;HPM_P1;HPM_P2
2022/11/17 00:02:33;;;;;;;;;;;;;;;10.20;95.71;97150.16;10194819;23;19924;-78
2022/11/17 00:06:34;;;;;;;;;;;;;;;10.21;95.92;97134.56;10177794;23;19931;-78
2022/11/17 00:10:35;;;;;;;;;;;;;;;10.24;95.36;97126.72;10175187;23;19985;-77
2022/11/17 00:14:39;;;;;;;;;;;;;;;10.25;95.26;97112.00;10198208;23;19988;-79
2022/11/17 00:23:00;;;;;;;;;;;;;;;10.24;95.43;97097.34;10198050;23;19924;-76
2022/11/17 00:27:01;;;;;;;;;;;;;;;10.25;95.41;97099.03;10173204;23;19927;-76
2022/11/17 00:35:23;;;;;;;;;;;;;;;10.27;95.62;97068.69;10242590;22;20015;-76
2022/11/17 00:39:24;;;;;;;;;;;;;;;10.26;95.42;97065.25;10270903;23;19923;-78
2022/11/17 00:43:25;;;;;;;;;;;;;;;10.27;95.17;97053.13;10271993;23;19978;-77
2022/11/17 00:47:26;;;;;;;;;;;;;;;10.28;95.18;97039.25;10264219;23;20029;-79
2022/11/17 00:51:28;;;;;;;;;;;;;;;10.29;94.56;97048.72;10271864;23;19923;-77
2022/11/17 00:55:29;;;;;;;;;;;;;;;10.31;94.61;97033.91;10247512;23;20007;-76
2022/11/17 00:59:31;;;;;;;;;;;;;;;10.32;94.55;97029.56;10247705;23;19985;-76
2022/11/17 01:03:33;;;;;;;;;;;;;;;10.32;94.07;97029.56;10250200;23;19943;-77
2022/11/17 01:07:35;;;;;;;;;;;;;;;10.37;93.24;97032.81;10275162;23;20196;-77
2022/11/17 01:11:36;;;;;;;;;;;;;;;10.39;92.83;97023.22;10249436;23;19939;-79
2022/11/17 01:15:37;;;;;;;;;;;;;;;10.38;92.32;97026.72;10242691;23;20602;-77
2022/11/17 01:19:39;;;;;;;;;;;;;;;10.37;92.48;97020.69;10276563;23;19927;-78
2022/11/17 01:23:41;;;;;;;;;;;;;;;10.39;91.98;97024.06;10251988;23;20470;-78
2022/11/17 01:27:42;;;;;;;;;;;;;;;10.38;92.19;97022.38;10275730;23;19924;-77
2022/11/17 01:31:48;;;;;;;;;;;;;;;10.38;91.99;97021.53;10243365;23;19930;-78
2022/11/17 01:35:49;;;;;;;;;;;;;;;10.40;91.56;97025.75;10250277;23;19923;-77
2022/11/17 01:39:50;;;;;;;;;;;;;;;10.44;91.29;97016.09;10277388;23;19924;-77
2022/11/17 01:43:52;;;;;;;;;;;;;;;10.48;90.80;97023.69;10278296;23;19927;-78
2022/11/17 01:47:56;;;;;;;;;;;;;;;10.48;90.82;97034.06;10269578;23;19977;-76
2022/11/17 01:52:03;;;;;;;;;;;;;;;10.47;90.92;97021.16;10250560;23;19923;-77
2022/11/17 01:56:08;;;;;;;;;;;;;;;10.42;91.88;97013.56;10251192;23;20675;-77
2022/11/17 02:00:09;;;;;;;;;;;;;;;10.39;92.60;97012.84;10240190;23;19927;-77
2022/11/17 02:04:11;;;;;;;;;;;;;;;10.37;93.03;97002.53;10271859;23;20323;-76
2022/11/17 02:08:13;;;;;;;;;;;;;;;10.39;93.93;97012.84;10269919;23;19982;-78
2022/11/17 02:12:15;;;;;;;;;;;;;;;10.35;94.13;96988.78;10270527;23;19924;-76
2022/11/17 02:16:17;;;;;;;;;;;;;;;10.32;93.73;97004.47;10262873;23;19962;-77
2022/11/17 02:20:27;;;;;;;;;;;;;;;10.32;93.94;96995.84;10270638;23;19919;-76
2022/11/17 02:24:35;;;;;;;;;;;;;;;10.33;93.96;96995.78;10273142;23;19958;-78
2022/11/17 02:28:41;;;;;;;;;;;;;;;10.37;93.55;96988.72;10244904;23;19932;-78
2022/11/17 02:32:51;;;;;;;;;;;;;;;10.37;93.85;96981.78;10264973;23;20005;-79
2022/11/17 02:36:52;;;;;;;;;;;;;;;10.37;93.59;96970.56;10269899;23;19924;-76
2022/11/17 02:40:54;;;;;;;;;;;;;;;10.33;93.91;96980.22;10269755;23;19966;-76
2022/11/17 02:44:59;;;;;;;;;;;;;;;10.36;93.68;96977.50;10271075;23;19923;-75
2022/11/17 02:49:03;;;;;;;;;;;;;;;10.42;93.65;96973.81;10261993;23;20022;-77
2022/11/17 02:53:05;;;;;;;;;;;;;;;10.44;93.82;96975.44;10271764;23;19924;-77
2022/11/17 02:57:25;;;;;;;;;;;;;;;10.48;93.94;96963.19;10271841;23;20053;-76
2022/11/17 03:01:29;;;;;;;;;;;;;;;10.50;94.59;96966.53;10271468;23;19928;-78
2022/11/17 03:05:41;;;;;;;;;;;;;;;10.48;95.30;96953.63;10280455;23;19935;-77
2022/11/17 03:09:46;;;;;;;;;;;;;;;10.48;95.94;96955.38;10284409;23;20018;-76
2022/11/17 03:13:52;;;;;;;;;;;;;;;10.47;96.19;96940.72;10280420;23;19938;-77
2022/11/17 03:18:08;;;;;;;;;;;;;;;10.43;96.93;96937.44;10247828;23;20002;-77
2022/11/17 03:22:11;;;;;;;;;;;;;;;10.41;97.21;96931.47;10280807;23;19985;-76
2022/11/17 03:26:16;;;;;;;;;;;;;;;10.40;97.29;96923.72;10281061;23;20024;-76
2022/11/17 03:30:19;;;;;;;;;;;;;;;10.37;98.42;96929.06;10274603;23;20362;-78
2022/11/17 03:34:22;;;;;;;;;;;;;;;10.36;98.55;96915.25;10295753;23;19981;-76
2022/11/17 03:38:25;;;;;;;;;;;;;;;10.39;98.79;96898.69;10305145;23;19927;-78
2022/11/17 03:42:28;;;;;;;;;;;;;;;10.39;99.22;96917.69;10304954;23;19931;-76
2022/11/17 03:46:30;;;;;;;;;;;;;;;10.37;99.24;96927.31;10296118;23;20014;-75
2022/11/17 03:50:41;;;;;;;;;;;;;;;10.43;98.77;96927.06;10303113;23;20010;-77
2022/11/17 03:54:43;;;;;;;;;;;;;;;10.43;99.15;96932.25;10304561;23;19924;-76
2022/11/17 03:58:53;;;;;;;;;;;;;;;10.46;98.98;96928.69;10279619;23;20346;-78
2022/11/17 04:02:57;;;;;;;;;;;;;;;10.48;99.12;96937.22;10293704;23;19930;-76
2022/11/17 04:06:58;;;;;;;;;;;;;;;10.51;98.79;96940.53;10327393;23;20368;-77
2022/11/17 04:19:40;;;;;;;;;;;;;;;10.50;98.81;96941.44;10299420;23;19928;-77
2022/11/17 04:23:42;;;;;;;;;;;;;;;10.50;99.01;96940.59;10272881;23;19962;-76
2022/11/17 04:32:03;;;;;;;;;;;;;;;10.54;98.97;96936.94;10316693;23;19924;-77
2022/11/17 04:36:05;;;;;;;;;;;;;;;10.55;98.90;96923.91;10271466;23;19923;-77
2022/11/17 04:40:06;;;;;;;;;;;;;;;10.58;98.60;96936.75;10273527;23;19929;-77
2022/11/17 04:44:09;;;;;;;;;;;;;;;10.63;98.09;96925.34;10275130;23;20002;-75
2022/11/17 04:48:10;;;;;;;;;;;;;;;10.64;97.75;96932.22;10268201;23;19927;-78
2022/11/17 04:52:12;;;;;;;;;;;;;;;10.66;97.35;96930.41;10275646;23;20357;-78
2022/11/17 04:56:13;;;;;;;;;;;;;;;10.68;97.01;96915.59;10275352;23;20348;-78
2022/11/17 05:00:15;;;;;;;;;;;;;;;10.71;96.78;96911.09;10269299;23;19998;-78
2022/11/17 05:08:38;;;;;;;;;;;;;;;10.69;96.84;96907.72;10277807;23;20019;-77
2022/11/17 05:17:07;;;;;;;;;;;;;;;10.68;96.30;96919.03;10267243;23;19931;-77
2022/11/17 05:21:11;;;;;;;;;;;;;;;10.68;95.85;96908.66;10275527;23;19924;-80
2022/11/17 05:25:14;;;;;;;;;;;;;;;10.70;95.67;96914.59;10274767;23;20014;-78
2022/11/17 05:29:16;;;;;;;;;;;;;;;10.72;95.71;96923.16;10276618;23;19986;-79
2022/11/17 05:33:18;;;;;;;;;;;;;;;10.73;95.33;96922.25;10270571;23;19986;-77
2022/11/17 05:37:19;;;;;;;;;;;;;;;10.77;94.64;96939.41;10301218;23;20234;-79
2022/11/17 05:41:21;;;;;;;;;;;;;;;10.79;94.54;96939.31;10300947;23;19983;-77
2022/11/17 05:45:22;;;;;;;;;;;;;;;10.79;94.27;96937.56;10268381;23;19965;-77
2022/11/17 05:49:24;;;;;;;;;;;;;;;10.80;93.56;96952.22;10325493;23;19982;-78
2022/11/17 05:53:26;;;;;;;;;;;;;;;10.79;93.65;96945.34;10300265;23;20003;-77
2022/11/17 05:57:30;;;;;;;;;;;;;;;10.80;93.63;96938.41;10328398;23;20005;-78
2022/11/17 06:01:34;;;;;;;;;;;;;;;10.77;93.21;96947.19;10318023;23;19919;-78
2022/11/17 06:05:35;;;;;;;;;;;;;;;10.79;92.55;96950.56;10301388;23;19923;-77
2022/11/17 06:09:39;;;;;;;;;;;;;;;10.78;92.68;96945.44;10301557;23;19927;-78
2022/11/17 06:13:40;;;;;;;;;;;;;;;10.76;92.49;96948.06;10299214;23;19927;-76
2022/11/17 06:17:49;;;;;;;;;;;;;;;10.72;92.68;96940.50;10319172;23;19980;-77
2022/11/17 06:21:50;;;;;;;;;;;;;;;10.71;92.05;96944.84;10299980;23;19923;-78
2022/11/17 06:26:12;;;;;;;;;;;;;;;10.68;92.67;96947.56;10325710;23;20238;-75
2022/11/17 06:30:14;;;;;;;;;;;;;;;10.65;92.32;96934.75;10292213;23;19920;-77
2022/11/17 06:34:15;;;;;;;;;;;;;;;10.60;92.31;96934.13;10297737;23;19923;-78
2022/11/17 06:38:16;;;;;;;;;;;;;;;10.55;92.77;96936.88;10303081;23;19928;-77
2022/11/17 06:42:18;;;;;;;;;;;;;;;10.50;92.35;96946.63;10304845;23;20006;-78
2022/11/17 06:46:19;;;;;;;;;;;;;;;10.49;92.55;96949.28;10295362;23;19930;-76
2022/11/17 06:50:21;;;;;;;;;;;;;;;10.52;92.48;96954.34;10279800;23;19923;-78
2022/11/17 06:54:22;;;;;;;;;;;;;;;10.51;92.73;96960.44;10309826;23;19984;-78
2022/11/17 06:58:23;;;;;;;;;;;;;;;10.47;93.15;96967.53;10336258;23;19931;-79
2022/11/17 07:02:25;;;;;;;;;;;;;;;10.47;93.22;96970.13;10350492;23;19923;-78
2022/11/17 07:06:26;;;;;;;;;;;;;;;10.51;92.80;96978.59;10283402;23;19984;-77
2022/11/17 07:10:28;;;;;;;;;;;;;;;10.52;93.77;96988.91;10304283;23;19932;-77
2022/11/17 07:14:30;;;;;;;;;;;;;;;10.53;94.73;96992.34;10281103;23;19924;-78
2022/11/17 07:18:32;;;;;;;;;;;;;;;10.50;96.04;97008.91;10332083;23;19934;-77
2022/11/17 07:22:33;;;;;;;;;;;;;;;10.49;96.85;96996.00;10306693;23;19927;-77
2022/11/17 07:26:35;;;;;;;;;;;;;;;10.52;96.83;97008.81;10334451;23;19954;-80
2022/11/17 07:30:36;;;;;;;;;;;;;;;10.54;96.75;97015.63;10298648;23;19923;-79
2022/11/17 07:34:38;;;;;;;;;;;;;;;10.57;96.14;97020.69;10283144;23;19927;-78
2022/11/17 07:38:40;;;;;;;;;;;;;;;10.58;95.64;97034.50;10288997;23;19981;-78
2022/11/17 07:42:46;;;;;;;;;;;;;;;10.60;94.45;97030.13;10314883;23;19933;-80
2022/11/17 07:46:47;;;;;;;;;;;;;;;10.64;95.04;97039.47;10308689;23;19923;-78
2022/11/17 07:50:49;;;;;;;;;;;;;;;10.65;94.46;97046.34;10286941;23;19929;-77
2022/11/17 07:54:50;;;;;;;;;;;;;;;10.62;92.65;97056.84;10287258;23;19946;-77
2022/11/17 07:58:52;;;;;;;;;;;;;;;10.66;91.44;97047.19;10339270;23;19950;-77
2022/11/17 08:02:54;;;;;;;;;;;;;;;10.65;90.56;97056.72;10280360;23;19920;-79
2022/11/17 08:06:55;;;;;;;;;;;;;;;10.65;89.52;97059.31;10312019;23;19943;-78
2022/11/17 08:11:05;;;;;;;;;;;;;;;10.69;89.64;97067.81;10340512;23;19931;-79
2022/11/17 08:15:07;;;;;;;;;;;;;;;10.67;89.84;97075.66;10311157;23;19962;-78
2022/11/17 08:19:10;;;;;;;;;;;;;;;10.67;90.33;97085.19;10291159;23;19951;-79
2022/11/17 08:23:12;;;;;;;;;;;;;;;10.64;91.67;97098.31;10343835;23;20518;-78
2022/11/17 08:27:13;;;;;;;;;;;;;;;10.57;92.64;97093.34;10345628;23;20324;-80
2022/11/17 08:31:15;;;;;;;;;;;;;;;10.61;93.63;97095.84;10316654;23;19920;-80
2022/11/17 08:35:17;;;;;;;;;;;;;;;10.65;94.01;97105.19;10320413;23;19934;-82
2022/11/17 08:39:18;;;;;;;;;;;;;;;10.72;93.87;97101.41;10309884;23;19935;-78
2022/11/17 08:43:19;;;;;;;;;;;;;;;10.75;92.95;97109.91;10347240;23;19934;-79
2022/11/17 08:47:21;;;;;;;;;;;;;;;10.83;93.40;97127.78;10311581;23;19923;-78
2022/11/17 08:51:23;;;;;;;;;;;;;;;10.85;93.08;97118.16;10325321;23;19939;-79
2022/11/17 08:55:25;;;;;;;;;;;;;;;10.84;92.67;97134.66;10346537;23;19923;-80
2022/11/17 08:59:26;;;;;;;;;;;;;;;10.75;92.42;97135.84;10325717;23;19962;-80
2022/11/17 09:03:28;;;;;;;;;;;;;;;10.72;93.04;97135.16;10315921;23;20020;-78
2022/11/17 09:07:33;;;;;;;;;;;;;;;10.73;94.00;97134.25;10315584;23;19935;-79
2022/11/17 09:11:35;;;;;;;;;;;;;;;10.68;94.70;97133.59;10315223;23;19924;-79
2022/11/17 09:15:36;;;;;;;;;;;;;;;10.64;94.97;97139.81;10311464;23;19931;-77
2022/11/17 09:19:38;;;;;;;;;;;;;;;10.68;95.64;97136.19;10322100;23;20004;-78
2022/11/17 09:23:40;;;;;;;;;;;;;;;10.76;95.87;97141.91;10321614;23;20208;-79
2022/11/17 09:27:41;;;;;;;;;;;;;;;10.83;95.94;97148.53;10314006;23;20443;-79
2022/11/17 09:31:42;;;;;;;;;;;;;;;10.81;95.43;97148.59;10285268;23;20303;-78
2022/11/17 09:35:44;;;;;;;;;;;;;;;10.74;95.11;97160.13;10270216;23;19919;-80
2022/11/17 09:39:45;;;;;;;;;;;;;;;10.66;95.67;97156.16;10296174;23;19923;-78
2022/11/17 09:44:07;;;;;;;;;;;;;;;10.68;96.09;97165.59;10290303;23;19934;-79
2022/11/17 09:48:12;;;;;;;;;;;;;;;10.66;96.38;97170.00;10278544;23;20569;-78
2022/11/17 09:52:54;;;;;;;;;;;;;;;10.59;96.63;97156.44;10267262;23;19934;-78
2022/11/17 09:56:56;;;;;;;;;;;;;;;10.57;97.07;97167.75;10277216;23;19959;-78
2022/11/17 10:00:58;;;;;;;;;;;;;;;10.51;98.00;97171.44;10250633;23;19951;-78
2022/11/17 10:04:59;;;;;;;;;;;;;;;10.55;98.42;97156.59;10283955;23;19928;-79
2022/11/17 10:09:03;;;;;;;;;;;;;;;10.62;98.48;97146.81;10283570;23;19935;-79
2022/11/17 10:13:10;;;;;;;;;;;;;;;10.68;98.45;97146.56;10282760;23;19924;-79
2022/11/17 10:17:12;;;;;;;;;;;;;;;10.71;98.33;97142.09;10275388;23;19928;-78
2022/11/17 10:21:13;;;;;;;;;;;;;;;10.93;98.27;97130.81;10285117;23;20310;-78
2022/11/17 10:25:21;;;;;;;;;;;;;;;11.22;97.93;97138.22;10291381;23;20506;-78
2022/11/17 10:29:22;;;;;;;;;;;;;;;11.48;96.88;97155.25;10265924;23;20533;-78
2022/11/17 10:33:31;;;;;;;;;;;;;;;11.78;96.76;97159.13;10316412;23;20243;-79
2022/11/17 10:37:32;;;;;;;;;;;;;;;11.80;93.61;97159.06;10315571;23;20004;-78
2022/11/17 10:41:37;;;;;;;;;;;;;;;11.75;92.30;97161.00;10283028;23;19924;-78
2022/11/17 10:45:42;;;;;;;;;;;;;;;11.74;91.38;97147.16;10281026;23;19935;-79
2022/11/17 10:49:44;;;;;;;;;;;;;;;11.76;90.14;97140.13;10315962;23;19923;-78
2022/11/17 10:54:04;;;;;;;;;;;;;;;11.70;90.11;97165.56;10310934;23;19924;-79
2022/11/17 10:58:26;;;;;;;;;;;;;;;11.64;90.16;97176.22;10314935;23;19923;-77
2022/11/17 11:02:29;;;;;;;;;;;;;;;11.67;89.39;97179.56;10303686;23;19930;-78
2022/11/17 11:06:32;;;;;;;;;;;;;;;11.71;89.51;97180.25;10313525;23;19998;-78
2022/11/17 11:10:34;;;;;;;;;;;;;;;11.77;88.44;97178.22;10314744;23;19928;-79
2022/11/17 11:14:38;;;;;;;;;;;;;;;11.93;86.35;97185.38;10284659;23;20556;-78
2022/11/17 11:18:39;;;;;;;;;;;;;;;12.05;85.70;97172.66;10327830;23;19928;-79
2022/11/17 11:23:04;;;;;;;;;;;;;;;12.15;84.93;97170.44;10329810;23;19924;-79
2022/11/17 11:27:12;;;;;;;;;;;;;;;12.20;85.29;97165.03;10307320;23;20311;-79
2022/11/17 11:31:27;;;;;;;;;;;;;;;12.30;84.68;97177.56;10326013;23;19977;-78
2022/11/17 11:35:35;;;;;;;;;;;;;;;12.39;84.33;97174.53;10330142;23;19926;-78
2022/11/17 11:39:59;;;;;;;;;;;;;;;12.51;84.14;97160.06;10279454;23;20532;-78
2022/11/17 11:44:00;;;;;;;;;;;;;;;12.62;83.78;97154.34;10302769;23;19935;-79
2022/11/17 11:48:05;;;;;;;;;;;;;;;12.63;82.25;97156.88;10291205;23;19980;-79
2022/11/17 11:52:10;;;;;;;;;;;;;;;12.64;81.81;97160.34;10279342;23;19955;-79
2022/11/17 11:56:28;;;;;;;;;;;;;;;12.62;81.18;97156.97;10323103;23;19923;-80
2022/11/17 12:00:30;;;;;;;;;;;;;;;12.62;80.05;97150.00;10267458;23;19949;-80
2022/11/17 12:04:51;;;;;;;;;;;;;;;12.67;79.89;97142.78;10315113;23;19954;-80
2022/11/17 12:09:17;;;;;;;;;;;;;;;12.62;80.33;97149.16;10314130;23;20653;-80
2022/11/17 12:13:20;;;;;;;;;;;;;;;12.45;79.70;97157.78;10336125;23;19919;-80
2022/11/17 12:17:25;;;;;;;;;;;;;;;12.24;80.02;97170.03;10336313;23;19919;-80
2022/11/17 12:21:31;;;;;;;;;;;;;;;12.09;80.65;97178.56;10336704;23;19939;-80
2022/11/17 12:25:34;;;;;;;;;;;;;;;11.98;81.51;97175.59;10309513;23;20265;-79
2022/11/17 12:29:44;;;;;;;;;;;;;;;11.91;83.74;97164.63;10334796;23;19934;-78
2022/11/17 12:33:52;;;;;;;;;;;;;;;11.88;84.31;97182.13;10289329;23;19924;-79
2022/11/17 12:38:12;;;;;;;;;;;;;;;11.85;85.76;97180.53;10326847;23;19963;-79
2022/11/17 12:42:14;;;;;;;;;;;;;;;11.84;86.00;97175.34;10306065;23;20254;-78
2022/11/17 12:46:15;;;;;;;;;;;;;;;11.89;87.71;97178.63;10324008;23;19975;-78
2022/11/17 12:50:19;;;;;;;;;;;;;;;11.72;87.50;97167.19;10276867;23;20008;-77
2022/11/17 12:54:24;;;;;;;;;;;;;;;11.57;88.67;97174.81;10303867;23;20272;-78
2022/11/17 12:58:45;;;;;;;;;;;;;;;11.51;89.24;97173.34;10331939;23;19927;-78
2022/11/17 13:02:59;;;;;;;;;;;;;;;11.46;90.88;97194.31;10252555;23;19984;-77
2022/11/17 13:07:15;;;;;;;;;;;;;;;11.28;91.30;97189.06;10302219;23;20309;-78
2022/11/17 13:11:17;;;;;;;;;;;;;;;11.25;92.87;97178.78;10324127;23;19950;-75
2022/11/17 13:15:22;;;;;;;;;;;;;;;11.24;94.15;97171.91;10297884;23;19923;-77
2022/11/17 13:19:27;;;;;;;;;;;;;;;11.34;94.15;97161.06;10324783;23;19966;-80
2022/11/17 13:23:29;;;;;;;;;;;;;;;11.46;94.67;97159.69;10322106;23;20035;-78
2022/11/17 13:27:31;;;;;;;;;;;;;;;11.52;94.97;97162.03;10295993;23;20030;-77
2022/11/17 13:31:32;;;;;;;;;;;;;;;11.51;94.77;97165.53;10323335;23;20313;-76
2022/11/17 13:35:34;;;;;;;;;;;;;;;11.50;95.27;97163.84;10246482;23;19927;-78
2022/11/17 13:39:36;;;;;;;;;;;;;;;11.44;94.44;97172.75;10273049;23;20227;-76
2022/11/17 13:43:38;;;;;;;;;;;;;;;11.32;94.66;97173.28;10246586;23;19923;-76
2022/11/17 13:47:44;;;;;;;;;;;;;;;11.27;95.16;97185.63;10272281;23;19941;-76
2022/11/17 13:51:46;;;;;;;;;;;;;;;11.24;96.02;97190.94;10271770;23;19951;-77
2022/11/17 13:55:47;;;;;;;;;;;;;;;11.29;96.53;97194.19;10273440;23;19924;-77
2022/11/17 13:59:49;;;;;;;;;;;;;;;11.35;97.26;97190.50;10249668;23;19963;-77
2022/11/17 14:03:51;;;;;;;;;;;;;;;11.22;95.37;97186.72;10264739;23;20030;-79
2022/11/17 14:07:54;;;;;;;;;;;;;;;11.14;94.90;97182.72;10275609;23;19924;-79
2022/11/17 14:11:56;;;;;;;;;;;;;;;11.10;94.75;97181.13;10275567;23;20003;-77
2022/11/17 14:15:59;;;;;;;;;;;;;;;11.02;94.37;97180.63;10242021;23;19986;-77
2022/11/17 14:20:17;;;;;;;;;;;;;;;10.88;94.74;97185.53;10274649;23;20005;-77
2022/11/17 14:24:18;;;;;;;;;;;;;;;10.80;95.44;97182.41;10276338;23;19924;-77
2022/11/17 14:28:21;;;;;;;;;;;;;;;10.76;95.82;97184.25;10248552;23;19931;-78
2022/11/17 14:32:23;;;;;;;;;;;;;;;10.76;96.49;97189.47;10274200;23;19921;-79
2022/11/17 14:36:25;;;;;;;;;;;;;;;10.75;96.98;97184.34;10324594;23;20081;-78
2022/11/17 14:40:27;;;;;;;;;;;;;;;10.77;97.26;97192.91;10337925;23;20473;-79
2022/11/17 14:44:28;;;;;;;;;;;;;;;10.77;97.43;97187.72;10307248;23;20003;-78
2022/11/17 14:48:30;;;;;;;;;;;;;;;10.81;97.63;97181.50;10327104;23;19928;-80
2022/11/17 14:52:31;;;;;;;;;;;;;;;10.80;97.30;97196.25;10338298;23;20026;-79
2022/11/17 14:56:33;;;;;;;;;;;;;;;10.79;97.07;97188.50;10284593;23;19920;-78
2022/11/17 15:00:35;;;;;;;;;;;;;;;10.75;96.65;97182.59;10332591;23;19950;-81
2022/11/17 15:04:40;;;;;;;;;;;;;;;10.77;96.62;97179.91;10321104;23;19930;-79
2022/11/17 15:08:52;;;;;;;;;;;;;;;10.76;96.40;97186.88;10344286;23;19923;-77
2022/11/17 15:12:54;;;;;;;;;;;;;;;10.72;96.78;97193.09;10317557;23;19923;-78
2022/11/17 15:16:55;;;;;;;;;;;;;;;10.70;97.20;97186.28;10315693;23;20105;-79
2022/11/17 15:21:01;;;;;;;;;;;;;;;10.70;97.71;97192.31;10347972;23;19971;-79
2022/11/17 15:25:03;;;;;;;;;;;;;;;10.70;98.03;97196.66;10346644;23;19923;-78
2022/11/17 15:29:04;;;;;;;;;;;;;;;10.73;97.98;97196.53;10337586;23;19923;-78
2022/11/17 15:33:06;;;;;;;;;;;;;;;10.76;98.19;97205.03;10303207;23;19923;-80
2022/11/17 15:37:07;;;;;;;;;;;;;;;10.77;97.81;97200.69;10340399;23;19920;-77
2022/11/17 15:41:10;;;;;;;;;;;;;;;10.71;98.30;97204.38;10339925;23;19963;-78
2022/11/17 15:45:11;;;;;;;;;;;;;;;10.71;98.42;97180.19;10276196;23;19923;-77
2022/11/17 15:49:13;;;;;;;;;;;;;;;10.67;98.34;97178.63;10302750;23;19919;-78
2022/11/17 15:53:15;;;;;;;;;;;;;;;10.69;98.60;97192.38;10300650;23;19923;-76
2022/11/17 15:57:16;;;;;;;;;;;;;;;10.67;98.51;97192.44;10297481;23;20008;-76
2022/11/17 16:01:23;;;;;;;;;;;;;;;10.61;98.56;97189.25;10313023;23;19947;-77
2022/11/17 16:05:25;;;;;;;;;;;;;;;10.57;98.75;97186.75;10342470;23;19924;-80
2022/11/17 16:09:27;;;;;;;;;;;;;;;10.56;99.48;97192.84;10316473;23;19984;-80
2022/11/17 16:13:28;;;;;;;;;;;;;;;10.54;98.99;97179.09;10298040;23;19931;-80
2022/11/17 16:17:30;;;;;;;;;;;;;;;10.51;99.04;97179.22;10288240;23;19923;-82
2022/11/17 16:21:32;;;;;;;;;;;;;;;10.51;99.15;97180.97;10310034;23;19967;-81
2022/11/17 16:25:38;;;;;;;;;;;;;;;10.51;99.45;97175.78;10310002;23;19931;-81
2022/11/17 16:29:39;;;;;;;;;;;;;;;10.50;99.49;97180.13;10335722;23;19977;-81
2022/11/17 16:33:48;;;;;;;;;;;;;;;10.45;99.19;97178.63;10276362;23;19967;-82
2022/11/17 16:37:52;;;;;;;;;;;;;;;10.39;98.95;97174.50;10307718;23;19931;-81
2022/11/17 16:41:54;;;;;;;;;;;;;;;10.32;98.98;97186.03;10295379;23;19931;-83
2022/11/17 16:45:56;;;;;;;;;;;;;;;10.25;99.15;97200.16;10313213;23;19919;-81
2022/11/17 16:49:58;;;;;;;;;;;;;;;10.14;98.84;97200.53;10292799;23;19934;-82
2022/11/17 16:54:01;;;;;;;;;;;;;;;10.08;99.16;97192.16;10316839;23;19923;-81
2022/11/17 16:58:04;;;;;;;;;;;;;;;9.98;99.00;97196.81;10319105;23;19930;-82
2022/11/17 17:02:05;;;;;;;;;;;;;;;9.89;98.68;97194.59;10311168;23;19924;-79
2022/11/17 17:06:09;;;;;;;;;;;;;;;9.86;99.15;97202.44;10321923;23;20321;-81
2022/11/17 17:10:11;;;;;;;;;;;;;;;9.81;99.68;97197.44;10314437;23;19928;-83
2022/11/17 17:14:13;;;;;;;;;;;;;;;9.80;100.00;97203.53;10308149;23;20345;-82
2022/11/17 17:18:15;;;;;;;;;;;;;;;9.74;100.00;97205.50;10327387;23;19930;-80
2022/11/17 17:22:16;;;;;;;;;;;;;;;9.62;99.61;97202.44;10308291;23;19950;-81
2022/11/17 17:26:18;;;;;;;;;;;;;;;9.54;99.17;97203.63;10282640;23;19963;-81
2022/11/17 17:30:20;;;;;;;;;;;;;;;9.45;98.65;97214.31;10327572;23;19934;-82
2022/11/17 17:34:21;;;;;;;;;;;;;;;9.42;99.34;97217.00;10305836;23;20684;-81
2022/11/17 17:38:25;;;;;;;;;;;;;;;9.38;99.67;97206.75;10305435;23;19938;-82
2022/11/17 17:42:26;;;;;;;;;;;;;;;9.41;100.00;97215.31;10276947;23;20014;-80
2022/11/17 17:46:29;;;;;;;;;;;;;;;9.36;99.93;97224.09;10295616;23;19927;-80
2022/11/17 17:50:31;;;;;;;;;;;;;;;9.33;100.00;97225.91;10295995;23;19974;-81
2022/11/17 17:54:32;;;;;;;;;;;;;;;9.29;100.00;97220.00;10301380;23;20635;-80
2022/11/17 17:58:40;;;;;;;;;;;;;;;9.27;100.00;97226.13;10302856;23;19935;-81
2022/11/17 18:02:42;;;;;;;;;;;;;;;9.27;100.00;97228.72;10319617;23;19934;-80
2022/11/17 18:06:47;;;;;;;;;;;;;;;9.25;100.00;97223.59;10278074;23;19924;-80
2022/11/17 18:10:49;;;;;;;;;;;;;;;9.23;100.00;97227.16;10304240;23;19919;-80
2022/11/17 18:14:50;;;;;;;;;;;;;;;9.20;100.00;97242.78;10304570;23;19923;-81
2022/11/17 18:18:55;;;;;;;;;;;;;;;9.24;100.00;97245.22;10271658;23;19924;-81
2022/11/17 18:22:56;;;;;;;;;;;;;;;9.28;100.00;97248.53;10306261;23;19924;-81
2022/11/17 18:26:58;;;;;;;;;;;;;;;9.30;100.00;97270.06;10302330;23;19986;-81
2022/11/17 18:31:03;;;;;;;;;;;;;;;9.36;100.00;97259.50;10290344;23;19931;-77
2022/11/17 18:35:04;;;;;;;;;;;;;;;9.41;100.00;97257.59;10269599;23;19977;-78
2022/11/17 18:39:06;;;;;;;;;;;;;;;9.44;100.00;97256.66;10325613;23;19920;-79
2022/11/17 18:43:07;;;;;;;;;;;;;;;9.38;100.00;97262.88;10298544;23;20038;-80
2022/11/17 18:47:09;;;;;;;;;;;;;;;9.34;100.00;97263.91;10266844;23;19923;-78
2022/11/17 18:51:20;;;;;;;;;;;;;;;9.33;100.00;97273.38;10296464;23;19923;-82
2022/11/17 18:55:22;;;;;;;;;;;;;;;9.35;100.00;97271.63;10297380;23;19928;-77
2022/11/17 18:59:23;;;;;;;;;;;;;;;9.37;100.00;97272.41;10299703;23;20381;-81
2022/11/17 19:03:24;;;;;;;;;;;;;;;9.39;100.00;97270.59;10273936;23;19928;-79
2022/11/17 19:07:26;;;;;;;;;;;;;;;9.34;100.00;97275.09;10296205;23;20010;-78
2022/11/17 19:11:30;;;;;;;;;;;;;;;9.28;100.00;97280.47;10298115;23;19934;-78
2022/11/17 19:15:32;;;;;;;;;;;;;;;9.26;100.00;97282.25;10297500;23;20267;-78
2022/11/17 19:19:34;;;;;;;;;;;;;;;9.23;100.00;97287.56;10300100;23;19923;-84
2022/11/17 19:23:48;;;;;;;;;;;;;;;9.19;100.00;97298.06;10279841;23;19924;-82
2022/11/17 19:28:10;;;;;;;;;;;;;;;9.09;100.00;97295.75;10203841;23;19962;-82
2022/11/17 19:32:18;;;;;;;;;;;;;;;9.07;100.00;97292.38;10199872;23;19947;-85
2022/11/17 19:36:22;;;;;;;;;;;;;;;9.12;100.00;97289.63;10236534;23;19924;-81
2022/11/17 19:40:24;;;;;;;;;;;;;;;9.09;100.00;97289.72;10232803;23;19933;-83
2022/11/17 19:44:26;;;;;;;;;;;;;;;9.04;100.00;97292.47;10206650;23;20514;-81
2022/11/17 19:48:28;;;;;;;;;;;;;;;9.00;100.00;97296.06;10201163;23;20272;-80
2022/11/17 19:52:30;;;;;;;;;;;;;;;8.96;100.00;97293.59;10264721;23;19959;-81
2022/11/17 19:56:32;;;;;;;;;;;;;;;8.96;100.00;97299.63;10283878;23;20405;-81
2022/11/17 20:00:34;;;;;;;;;;;;;;;8.93;100.00;97307.50;10277047;23;20010;-81
2022/11/17 20:04:35;;;;;;;;;;;;;;;8.89;100.00;97305.91;10283769;23;19940;-80
2022/11/17 20:08:36;;;;;;;;;;;;;;;8.85;100.00;97306.91;10284729;23;19920;-82
2022/11/17 20:12:40;;;;;;;;;;;;;;;8.87;100.00;97314.59;10257936;23;19924;-81
2022/11/17 20:16:41;;;;;;;;;;;;;;;8.88;100.00;97305.94;10276343;23;20310;-81
2022/11/17 20:20:43;;;;;;;;;;;;;;;8.90;100.00;97305.00;10283864;23;19993;-81
2022/11/17 20:24:44;;;;;;;;;;;;;;;8.91;100.00;97303.25;10258113;23;19989;-81
2022/11/17 20:28:46;;;;;;;;;;;;;;;8.87;100.00;97307.69;10284779;23;19920;-83
2022/11/17 20:32:48;;;;;;;;;;;;;;;8.79;100.00;97328.63;10251010;23;19924;-80
2022/11/17 20:36:49;;;;;;;;;;;;;;;8.73;100.00;97335.72;10329891;23;19927;-81
2022/11/17 20:40:55;;;;;;;;;;;;;;;8.66;100.00;97348.00;10281227;23;19980;-80
2022/11/17 20:44:56;;;;;;;;;;;;;;;8.61;100.00;97349.84;10282512;23;20216;-80
2022/11/17 20:48:57;;;;;;;;;;;;;;;8.56;100.00;97356.06;10304352;23;19963;-79
2022/11/17 20:52:59;;;;;;;;;;;;;;;8.52;100.00;97357.91;10282105;23;20316;-80
2022/11/17 20:57:00;;;;;;;;;;;;;;;8.55;100.00;97375.06;10342083;23;19908;-80
2022/11/17 21:01:05;;;;;;;;;;;;;;;8.58;100.00;97374.97;10295944;23;19930;-81
2022/11/17 21:05:07;;;;;;;;;;;;;;;8.63;100.00;97363.63;10353728;23;19919;-81
2022/11/17 21:09:08;;;;;;;;;;;;;;;8.71;100.00;97366.81;10365180;23;19919;-81
2022/11/17 21:13:10;;;;;;;;;;;;;;;8.72;100.00;97375.44;10353538;23;20588;-82
2022/11/17 21:18:22;;;;;;;;;;;;;;;8.70;100.00;97372.03;10340455;23;19919;-82
2022/11/17 21:21:33;;;;;;;;;;;;;;;8.64;100.00;97361.88;10347066;23;19923;-81
2022/11/17 21:25:35;;;;;;;;;;;;;;;8.63;100.00;97362.78;10380108;23;19903;-82